Terminal Aerodrome Forecast
Issued by NWS

Home | Current Version | Previous Version | Text Only | Print | Product List | Glossary On
Versions: 1 2 3 4 5 6 7 8 9 10 11 12 13 14 15 16 17 18 19 20 21 22 23 24
000
FTUS43 KLSX 191509 AAA
TAFUIN
TAF AMD
KUIN 191509Z 1915/2012 12006KT 4SM -SHRA BR OVC012
      TEMPO 1915/1919 1SM BR BKN005
     FM192100 11006KT 3SM BR OVC008
     FM200600 VRB03KT 1SM BR OVC003
     FM201000 VRB03KT 1/2SM FG OVC003=

USA.gov is the U.S. government's official web portal to all federal, state and local government web resources and services.